Long Sutton, United Kingdom
Current Conditions -  °F | °C
As of 8:25 AM on Tuesday 21 Oct 2014 (Local Time) from EGVO Reporting Station
Broken Clouds Broken Clouds  
Wind Chill: 55°   Ceiling: 4000
Heat Index: 55°   Visibility: 6mi
Dew Point: 52°   Wind: 22mph
Humidity: 88%   Direction: 250°WSW
Pressure: 29.59"   Gusts: 37mph
Location:  51.22°N, 0.93°W
Report Text: EGVO 210725Z 25019G32KT 9999 FEW010 SCT022 BKN040 13/11 Q1002 WHT BECMG FEW025 BLU
Loading
Personal Weather Stations






























Interactive Weather Map
Tropical Storm Tracking
New forecast layout! Learn more

10-Day Weather Forecast

Advertisements
Track Severe Weather on mobile